EWG82Y EDDL-LOWW
Flight info
| Callsign | EWG82Y |
|---|---|
| Flight time | N/A |
| Altitude | 33000 |
| Route | DODEN7Z DODEN Y853 BOMBI DCT ESATI DCT OSBIT DCT KOMIB L984 SULUS Z650 VEMUT DCT BUDEX BUDEX2W |
| Aircraft | A320/M-SDE3FGHIRWY/LB1 |
Departure
| Time | N/A |
|---|---|
| Airport | Düsseldorf Airport (EDDL) |
Arrival
| Time | 2026-04-23 15:09 |
|---|---|
| Airport | Vienna International Airport (LOWW) |
| Time | Latitude | Longitude | Altitude | Speed | Heading |
|---|---|---|---|---|---|
| 2026-04-23 14:10 | 50.06700 | 9.48998 | 33309 ft | 398 kts | 88° |
| 2026-04-23 14:10 | 50.06733 | 9.52257 | 33308 ft | 398 kts | 88° |
| 2026-04-23 14:11 | 50.06824 | 9.60884 | 33308 ft | 398 kts | 88° |
| 2026-04-23 14:11 | 50.06913 | 9.69504 | 33310 ft | 398 kts | 88° |
| 2026-04-23 14:12 | 50.06990 | 9.78139 | 33318 ft | 399 kts | 88° |
| 2026-04-23 14:12 | 50.07071 | 9.86768 | 33318 ft | 399 kts | 88° |
| 2026-04-23 14:13 | 50.07149 | 9.95400 | 33324 ft | 399 kts | 88° |
| 2026-04-23 14:13 | 50.07214 | 10.04030 | 33325 ft | 399 kts | 88° |
| 2026-04-23 14:14 | 50.07271 | 10.12661 | 33324 ft | 399 kts | 88° |
| 2026-04-23 14:14 | 50.07319 | 10.21287 | 33322 ft | 398 kts | 88° |
| 2026-04-23 14:15 | 50.07366 | 10.29910 | 33323 ft | 398 kts | 88° |
| 2026-04-23 14:15 | 50.07414 | 10.38524 | 33318 ft | 398 kts | 88° |
| 2026-04-23 14:16 | 50.07451 | 10.47080 | 33317 ft | 398 kts | 88° |
| 2026-04-23 14:16 | 50.07482 | 10.55681 | 33310 ft | 397 kts | 88° |
| 2026-04-23 14:17 | 50.07504 | 10.64281 | 33304 ft | 397 kts | 88° |
| 2026-04-23 14:17 | 50.07432 | 10.71481 | 33298 ft | 398 kts | 94° |
| 2026-04-23 14:18 | 50.06054 | 10.79864 | 33294 ft | 403 kts | 104° |
| 2026-04-23 14:18 | 50.04310 | 10.88082 | 33291 ft | 403 kts | 104° |
| 2026-04-23 14:19 | 50.02565 | 10.96356 | 33284 ft | 402 kts | 104° |
| 2026-04-23 14:19 | 50.00814 | 11.04617 | 33275 ft | 402 kts | 104° |
| 2026-04-23 14:20 | 49.99054 | 11.12877 | 33280 ft | 403 kts | 104° |
| 2026-04-23 14:20 | 49.97280 | 11.21131 | 33274 ft | 403 kts | 104° |
| 2026-04-23 14:21 | 49.95517 | 11.29382 | 33274 ft | 402 kts | 104° |
| 2026-04-23 14:21 | 49.93770 | 11.37636 | 33277 ft | 403 kts | 104° |
| 2026-04-23 14:22 | 49.92081 | 11.45911 | 33273 ft | 402 kts | 102° |
| 2026-04-23 14:22 | 49.90580 | 11.54246 | 33275 ft | 401 kts | 101° |
| 2026-04-23 14:23 | 49.89092 | 11.62579 | 33271 ft | 401 kts | 101° |
| 2026-04-23 14:23 | 49.87873 | 11.70966 | 33266 ft | 396 kts | 94° |
| 2026-04-23 14:24 | 49.87125 | 11.79429 | 33259 ft | 396 kts | 94° |
| 2026-04-23 14:24 | 49.86378 | 11.87876 | 33255 ft | 396 kts | 94° |
| 2026-04-23 14:25 | 49.85628 | 11.96260 | 33255 ft | 395 kts | 94° |
| 2026-04-23 14:25 | 49.84869 | 12.04700 | 33251 ft | 395 kts | 94° |
| 2026-04-23 14:26 | 49.84111 | 12.13123 | 33254 ft | 395 kts | 93° |
| 2026-04-23 14:26 | 49.83346 | 12.21552 | 33258 ft | 395 kts | 93° |
| 2026-04-23 14:27 | 49.82570 | 12.29970 | 33257 ft | 395 kts | 93° |
| 2026-04-23 14:27 | 49.81789 | 12.38386 | 33256 ft | 394 kts | 93° |
| 2026-04-23 14:28 | 49.80479 | 12.46669 | 33252 ft | 404 kts | 108° |
| 2026-04-23 14:28 | 49.77505 | 12.54172 | 33241 ft | 412 kts | 118° |
| 2026-04-23 14:29 | 49.74264 | 12.61415 | 33238 ft | 413 kts | 118° |
| 2026-04-23 14:29 | 49.70991 | 12.68721 | 33238 ft | 413 kts | 117° |
| 2026-04-23 14:30 | 49.67719 | 12.76016 | 33235 ft | 413 kts | 117° |
| 2026-04-23 14:30 | 49.64443 | 12.83305 | 33234 ft | 414 kts | 117° |
| 2026-04-23 14:31 | 49.61157 | 12.90590 | 33231 ft | 414 kts | 117° |
| 2026-04-23 14:31 | 49.57860 | 12.97875 | 33228 ft | 414 kts | 117° |
| 2026-04-23 14:32 | 49.54563 | 13.05157 | 33229 ft | 415 kts | 117° |
| 2026-04-23 14:32 | 49.51258 | 13.12433 | 33233 ft | 415 kts | 117° |
| 2026-04-23 14:33 | 49.47970 | 13.19656 | 33237 ft | 415 kts | 117° |
| 2026-04-23 14:33 | 49.44653 | 13.26915 | 33235 ft | 415 kts | 117° |
| 2026-04-23 14:34 | 49.41328 | 13.34172 | 33236 ft | 415 kts | 117° |
| 2026-04-23 14:34 | 49.37997 | 13.41415 | 33231 ft | 415 kts | 117° |
| 2026-04-23 14:35 | 49.36324 | 13.45051 | 32722 ft | 418 kts | 117° |
| 2026-04-23 14:35 | 49.34646 | 13.48689 | 32156 ft | 418 kts | 117° |
| 2026-04-23 14:35 | 49.32964 | 13.52329 | 31598 ft | 419 kts | 117° |
| 2026-04-23 14:35 | 49.31275 | 13.55978 | 31049 ft | 420 kts | 117° |
| 2026-04-23 14:36 | 49.29577 | 13.59643 | 30521 ft | 422 kts | 118° |
| 2026-04-23 14:36 | 49.27882 | 13.63295 | 29932 ft | 419 kts | 118° |
| 2026-04-23 14:36 | 49.26200 | 13.66905 | 29446 ft | 413 kts | 118° |
| 2026-04-23 14:36 | 49.24542 | 13.70461 | 28946 ft | 408 kts | 117° |
| 2026-04-23 14:37 | 49.22907 | 13.73971 | 28461 ft | 403 kts | 117° |
| 2026-04-23 14:37 | 49.21288 | 13.77441 | 27982 ft | 398 kts | 118° |
| 2026-04-23 14:37 | 49.19685 | 13.80867 | 27509 ft | 393 kts | 117° |
| 2026-04-23 14:37 | 49.18125 | 13.84199 | 27057 ft | 389 kts | 117° |
| 2026-04-23 14:38 | 49.16562 | 13.87541 | 26593 ft | 385 kts | 117° |
| 2026-04-23 14:38 | 49.15012 | 13.90852 | 26148 ft | 381 kts | 117° |
| 2026-04-23 14:38 | 49.13474 | 13.94132 | 25707 ft | 378 kts | 117° |
| 2026-04-23 14:38 | 49.11945 | 13.97391 | 25276 ft | 377 kts | 117° |
| 2026-04-23 14:39 | 49.10425 | 14.00638 | 24843 ft | 375 kts | 118° |
| 2026-04-23 14:39 | 49.08908 | 14.03875 | 24421 ft | 374 kts | 118° |
| 2026-04-23 14:39 | 49.07392 | 14.07095 | 24017 ft | 373 kts | 118° |
| 2026-04-23 14:39 | 49.05874 | 14.10305 | 23557 ft | 372 kts | 118° |
| 2026-04-23 14:40 | 49.04362 | 14.13499 | 23066 ft | 371 kts | 118° |
| 2026-04-23 14:40 | 49.02855 | 14.16684 | 22581 ft | 370 kts | 119° |
| 2026-04-23 14:40 | 49.01352 | 14.19863 | 22103 ft | 369 kts | 119° |
| 2026-04-23 14:40 | 48.99856 | 14.23028 | 21637 ft | 368 kts | 119° |
| 2026-04-23 14:41 | 48.98361 | 14.26175 | 21174 ft | 367 kts | 120° |
| 2026-04-23 14:41 | 48.96863 | 14.29317 | 20730 ft | 366 kts | 120° |
| 2026-04-23 14:41 | 48.95372 | 14.32445 | 20265 ft | 365 kts | 120° |
| 2026-04-23 14:41 | 48.93871 | 14.35567 | 19830 ft | 365 kts | 121° |
| 2026-04-23 14:42 | 48.92346 | 14.38644 | 19399 ft | 364 kts | 122° |
| 2026-04-23 14:42 | 48.90802 | 14.41693 | 18969 ft | 364 kts | 122° |
| 2026-04-23 14:42 | 48.89251 | 14.44728 | 18547 ft | 363 kts | 123° |
| 2026-04-23 14:42 | 48.87700 | 14.47760 | 18070 ft | 363 kts | 123° |
| 2026-04-23 14:43 | 48.86156 | 14.50790 | 17589 ft | 362 kts | 123° |
| 2026-04-23 14:43 | 48.84625 | 14.53807 | 17227 ft | 358 kts | 123° |
| 2026-04-23 14:43 | 48.83116 | 14.56777 | 17180 ft | 353 kts | 123° |
| 2026-04-23 14:43 | 48.81619 | 14.59729 | 17192 ft | 353 kts | 122° |
| 2026-04-23 14:44 | 48.80145 | 14.62640 | 17191 ft | 352 kts | 122° |
| 2026-04-23 14:44 | 48.78630 | 14.65631 | 17190 ft | 352 kts | 123° |
| 2026-04-23 14:44 | 48.77157 | 14.68529 | 17188 ft | 352 kts | 123° |
| 2026-04-23 14:44 | 48.75658 | 14.71467 | 17189 ft | 352 kts | 123° |
| 2026-04-23 14:45 | 48.74157 | 14.74402 | 17187 ft | 352 kts | 123° |
| 2026-04-23 14:45 | 48.72657 | 14.77339 | 17189 ft | 352 kts | 123° |
| 2026-04-23 14:45 | 48.71158 | 14.80270 | 17190 ft | 352 kts | 123° |
| 2026-04-23 14:45 | 48.69657 | 14.83207 | 17187 ft | 352 kts | 123° |
| 2026-04-23 14:46 | 48.68156 | 14.86135 | 17184 ft | 352 kts | 123° |
| 2026-04-23 14:46 | 48.66653 | 14.89057 | 17133 ft | 353 kts | 123° |
| 2026-04-23 14:46 | 48.65147 | 14.91981 | 16795 ft | 351 kts | 123° |
| 2026-04-23 14:46 | 48.63646 | 14.94890 | 16466 ft | 349 kts | 123° |
| 2026-04-23 14:47 | 48.62157 | 14.97776 | 16131 ft | 348 kts | 123° |
| 2026-04-23 14:47 | 48.60674 | 15.00652 | 15803 ft | 346 kts | 123° |
| 2026-04-23 14:47 | 48.59366 | 15.03656 | 15481 ft | 339 kts | 112° |
| 2026-04-23 14:47 | 48.58445 | 15.06886 | 15160 ft | 332 kts | 102° |
| 2026-04-23 14:48 | 48.57846 | 15.10215 | 14841 ft | 328 kts | 99° |
| 2026-04-23 14:48 | 48.57276 | 15.13544 | 14526 ft | 327 kts | 99° |
| 2026-04-23 14:48 | 48.56704 | 15.16855 | 14220 ft | 326 kts | 99° |
| 2026-04-23 14:48 | 48.56134 | 15.20156 | 13901 ft | 324 kts | 99° |
| 2026-04-23 14:49 | 48.55567 | 15.23444 | 13546 ft | 323 kts | 99° |
| 2026-04-23 14:49 | 48.55002 | 15.26714 | 13202 ft | 322 kts | 99° |
| 2026-04-23 14:49 | 48.54436 | 15.29973 | 12860 ft | 321 kts | 99° |
| 2026-04-23 14:49 | 48.53872 | 15.33224 | 12519 ft | 320 kts | 99° |
| 2026-04-23 14:50 | 48.53308 | 15.36464 | 12187 ft | 319 kts | 99° |
| 2026-04-23 14:50 | 48.52744 | 15.39691 | 11852 ft | 318 kts | 99° |
| 2026-04-23 14:50 | 48.52187 | 15.42906 | 11528 ft | 315 kts | 98° |
| 2026-04-23 14:50 | 48.51878 | 15.46136 | 11206 ft | 309 kts | 89° |
| 2026-04-23 14:51 | 48.51704 | 15.49366 | 10884 ft | 308 kts | 89° |
| 2026-04-23 14:51 | 48.51527 | 15.52587 | 10563 ft | 308 kts | 89° |
| 2026-04-23 14:51 | 48.51347 | 15.55788 | 10253 ft | 306 kts | 89° |
| 2026-04-23 14:51 | 48.51166 | 15.58979 | 9928 ft | 304 kts | 89° |
| 2026-04-23 14:52 | 48.50987 | 15.62132 | 9587 ft | 300 kts | 89° |
| 2026-04-23 14:52 | 48.50808 | 15.65262 | 9233 ft | 298 kts | 89° |
| 2026-04-23 14:52 | 48.50632 | 15.68354 | 8898 ft | 295 kts | 89° |
| 2026-04-23 14:52 | 48.50454 | 15.71415 | 8557 ft | 292 kts | 89° |
| 2026-04-23 14:53 | 48.50277 | 15.74445 | 8224 ft | 289 kts | 89° |
| 2026-04-23 14:53 | 48.50099 | 15.77467 | 7896 ft | 288 kts | 89° |
| 2026-04-23 14:53 | 48.49923 | 15.80472 | 7563 ft | 288 kts | 89° |
| 2026-04-23 14:53 | 48.49749 | 15.83455 | 7246 ft | 297 kts | 89° |
| 2026-04-23 14:54 | 48.49508 | 15.86615 | 6922 ft | 310 kts | 98° |
| 2026-04-23 14:54 | 48.48611 | 15.89664 | 6604 ft | 320 kts | 120° |
| 2026-04-23 14:54 | 48.47382 | 15.92410 | 6281 ft | 321 kts | 121° |
| 2026-04-23 14:54 | 48.46124 | 15.95167 | 5985 ft | 319 kts | 122° |
| 2026-04-23 14:55 | 48.44862 | 15.97913 | 5933 ft | 319 kts | 122° |
| 2026-04-23 14:55 | 48.43601 | 16.00658 | 5941 ft | 319 kts | 122° |
| 2026-04-23 14:55 | 48.42341 | 16.03411 | 5939 ft | 319 kts | 121° |
| 2026-04-23 14:55 | 48.41084 | 16.06160 | 5942 ft | 319 kts | 121° |
| 2026-04-23 14:56 | 48.39826 | 16.08910 | 5941 ft | 319 kts | 122° |
| 2026-04-23 14:56 | 48.38566 | 16.11666 | 5940 ft | 320 kts | 121° |
| 2026-04-23 14:56 | 48.37301 | 16.14426 | 5938 ft | 321 kts | 121° |
| 2026-04-23 14:56 | 48.36036 | 16.17190 | 5938 ft | 321 kts | 121° |
| 2026-04-23 14:57 | 48.34769 | 16.19956 | 5938 ft | 321 kts | 121° |
| 2026-04-23 14:57 | 48.33502 | 16.22716 | 5934 ft | 321 kts | 121° |
| 2026-04-23 14:57 | 48.32233 | 16.25473 | 5923 ft | 321 kts | 120° |
| 2026-04-23 14:57 | 48.30964 | 16.28222 | 5924 ft | 319 kts | 121° |
| 2026-04-23 14:58 | 48.29702 | 16.30953 | 5913 ft | 318 kts | 122° |
| 2026-04-23 14:58 | 48.28440 | 16.33686 | 5923 ft | 319 kts | 122° |
| 2026-04-23 14:58 | 48.27177 | 16.36427 | 5915 ft | 320 kts | 122° |
| 2026-04-23 14:58 | 48.25908 | 16.39179 | 5909 ft | 320 kts | 121° |
| 2026-04-23 14:59 | 48.24657 | 16.41889 | 5910 ft | 320 kts | 122° |
| 2026-04-23 14:59 | 48.23387 | 16.44633 | 5908 ft | 320 kts | 122° |
| 2026-04-23 14:59 | 48.22116 | 16.47374 | 5905 ft | 320 kts | 122° |
| 2026-04-23 14:59 | 48.20844 | 16.50112 | 5903 ft | 320 kts | 121° |
| 2026-04-23 15:00 | 48.19572 | 16.52848 | 5901 ft | 320 kts | 121° |
| 2026-04-23 15:00 | 48.18298 | 16.55587 | 5899 ft | 321 kts | 121° |
| 2026-04-23 15:00 | 48.17018 | 16.58332 | 5900 ft | 321 kts | 122° |
| 2026-04-23 15:00 | 48.15762 | 16.61013 | 5900 ft | 306 kts | 121° |
| 2026-04-23 15:01 | 48.14555 | 16.63591 | 5899 ft | 301 kts | 121° |
| 2026-04-23 15:01 | 48.13361 | 16.66153 | 5905 ft | 299 kts | 121° |
| 2026-04-23 15:01 | 48.12038 | 16.68566 | 5901 ft | 302 kts | 133° |
| 2026-04-23 15:01 | 48.10412 | 16.70569 | 5896 ft | 304 kts | 145° |
| 2026-04-23 15:02 | 48.09199 | 16.71616 | 5900 ft | 305 kts | 154° |
| 2026-04-23 15:02 | 48.06529 | 16.73001 | 5904 ft | 304 kts | 166° |
| 2026-04-23 15:02 | 48.04486 | 16.73831 | 5905 ft | 304 kts | 166° |
| 2026-04-23 15:02 | 48.02447 | 16.74667 | 5898 ft | 304 kts | 166° |
| 2026-04-23 15:03 | 48.00408 | 16.75512 | 5912 ft | 304 kts | 165° |
| 2026-04-23 15:03 | 47.98410 | 16.76350 | 5899 ft | 290 kts | 165° |
| 2026-04-23 15:03 | 47.96490 | 16.77158 | 5561 ft | 283 kts | 165° |
| 2026-04-23 15:03 | 47.94646 | 16.77911 | 5159 ft | 274 kts | 170° |
| 2026-04-23 15:04 | 47.92808 | 16.77896 | 4748 ft | 258 kts | 202° |
| 2026-04-23 15:04 | 47.91324 | 16.76644 | 4336 ft | 239 kts | 234° |
| 2026-04-23 15:04 | 47.90554 | 16.74593 | 3824 ft | 222 kts | 267° |
| 2026-04-23 15:04 | 47.90696 | 16.72335 | 3328 ft | 229 kts | 298° |
| 2026-04-23 15:05 | 47.91598 | 16.70406 | 2946 ft | 226 kts | 314° |
| 2026-04-23 15:05 | 47.92664 | 16.68658 | 2899 ft | 229 kts | 316° |
| 2026-04-23 15:05 | 47.93749 | 16.66918 | 2902 ft | 230 kts | 315° |
| 2026-04-23 15:05 | 47.94905 | 16.65274 | 2899 ft | 229 kts | 328° |
| 2026-04-23 15:06 | 47.96352 | 16.64386 | 2902 ft | 220 kts | 343° |
| 2026-04-23 15:06 | 47.97779 | 16.63798 | 2799 ft | 208 kts | 343° |
| 2026-04-23 15:06 | 47.99169 | 16.63219 | 2576 ft | 207 kts | 342° |
| 2026-04-23 15:06 | 48.00561 | 16.62635 | 2304 ft | 208 kts | 342° |
| 2026-04-23 15:07 | 48.01926 | 16.62060 | 2023 ft | 198 kts | 343° |
| 2026-04-23 15:07 | 48.03225 | 16.61513 | 1775 ft | 190 kts | 343° |
| 2026-04-23 15:07 | 48.04438 | 16.61003 | 1521 ft | 173 kts | 342° |
| 2026-04-23 15:07 | 48.05537 | 16.60542 | 1304 ft | 156 kts | 341° |
| 2026-04-23 15:08 | 48.06557 | 16.60140 | 1096 ft | 145 kts | 341° |
| 2026-04-23 15:08 | 48.07486 | 16.59741 | 930 ft | 137 kts | 339° |
| 2026-04-23 15:08 | 48.08374 | 16.59358 | 753 ft | 129 kts | 340° |
| 2026-04-23 15:09 | 48.09985 | 16.58653 | 615 ft | 93 kts | 345° |
| 2026-04-23 15:09 | 48.10453 | 16.58458 | 619 ft | 57 kts | 344° |
| 2026-04-23 15:09 | 48.10743 | 16.58252 | 613 ft | 32 kts | 317° |
| 2026-04-23 15:09 | 48.10883 | 16.58041 | 615 ft | 26 kts | 315° |
| 2026-04-23 15:10 | 48.10965 | 16.57918 | 624 ft | 25 kts | 314° |
| 2026-04-23 15:10 | 48.11098 | 16.57619 | 625 ft | 27 kts | 297° |
| 2026-04-23 15:10 | 48.11181 | 16.57362 | 613 ft | 28 kts | 296° |
| 2026-04-23 15:10 | 48.11266 | 16.57095 | 614 ft | 29 kts | 296° |
| 2026-04-23 15:11 | 48.11356 | 16.56823 | 610 ft | 29 kts | 296° |
| 2026-04-23 15:11 | 48.11445 | 16.56547 | 617 ft | 29 kts | 296° |
| 2026-04-23 15:11 | 48.11524 | 16.56302 | 620 ft | 22 kts | 297° |
| 2026-04-23 15:11 | 48.11594 | 16.56101 | 611 ft | 22 kts | 296° |
| 2026-04-23 15:12 | 48.11663 | 16.55887 | 614 ft | 24 kts | 295° |
| 2026-04-23 15:12 | 48.11721 | 16.55768 | 613 ft | 17 kts | 335° |
| 2026-04-23 15:12 | 48.11828 | 16.55848 | 611 ft | 20 kts | 33° |
| 2026-04-23 15:12 | 48.11951 | 16.55923 | 609 ft | 2 kts | 311° |
| 2026-04-23 15:13 | 48.11958 | 16.55896 | 614 ft | 6 kts | 292° |
| 2026-04-23 15:13 | 48.11977 | 16.55834 | 620 ft | 0 kts | 296° |